Terminal Aerodrome Forecast
Issued by NWS Twin Cities, MN

Home | Current Version | Previous Version | Text Only | Print | Product List | Glossary Off
Versions: 1 2 3 4 5 6 7 8 9 10 11 12 13 14 15 16 17 18 19 20 21 22

000
FTUS43 KMPX 142340
TAFSTC
TAF
KSTC 142340Z 1500/1524 04003KT P6SM BKN250
     FM150600 00000KT 2SM BR SKC
     FM150700 00000KT 1/4SM FG VV002
      TEMPO 1512/1514 3SM BR BKN005
     FM151400 08004KT P6SM BKN012
     FM151700 12008KT P6SM SCT030 BKN250=

USA.gov is the U.S. government's official web portal to all federal, state and local government web resources and services.